x

Isle Of Shoals, Nh (iosn3) Weather Station

2:00 - Wed 28th Jun 2017 All times are EDT. -4 hours from GMT.

  • Wind
    16mph, 17mph gusts
  • Ar Temp 57°f
  • Sea Pressure 1013.7mb
  • Isle Of Shoals, Nh
  • Isle Of Shoals, Nh

More Historic Weather Station data

Upgrade to MSW Pro to gain access to the past 30 days of data for over 8000 Wavebouys and Weather Stations around the globe.

Join Pro

Comparision Forecast

View Surf forecast
   
Qua 06/28 2:00 16 17 mph 1013.7mb 57f
1:00 14 17 mph 1014mb 59f
12:00 10 10 mph 1014.1mb 58f
Ter 06/27 11:00 2 3 mph 1013.6mb 59f
10:00  -  0 mph 1014.2mb 58f
9:00 21 22 mph 1012.7mb 62f
8:00 36 40 mph 1012.2mb 62f
7:00 22 23 mph 1012.5mb 62f
6:00 18 22 mph 1013.6mb 60f
5:00 10 14 mph 1013.4mb 59f
4:00 9 10 mph 1013.1mb 63f
3:00 14 15 mph 1013.5mb 65f
2:00 14 14 mph 1013.9mb 65f
1:00 6 6 mph 1014.5mb 65f
12:00 8 9 mph 1015.4mb 64f
11:00 8 9 mph 1015.8mb 62f
10:00 2 3 mph 1015.9mb 61f
9:00 7 7 mph 1015.6mb 62f
8:00 7 8 mph 1015.5mb 61f
7:00 5 5 mph 1015.4mb 61f
6:00 5 5 mph 1015.6mb 59f
5:00 10 10 mph 1015.7mb 59f
4:00 11 11 mph 1015.2mb 60f
3:00 9 9 mph 1014.9mb 61f
2:00 9 9 mph 1014.9mb 62f
1:00 5 6 mph 1014.6mb 64f
12:00 15 16 mph 1015.1mb 64f
Seg 06/26 11:00 14 15 mph 1014.8mb 65f
10:00 9 10 mph 1014.6mb 69f
9:00 21 22 mph 1014.3mb 64f
8:00 17 18 mph 1014.1mb 65f
7:00 15 17 mph 1013.8mb 67f
6:00 14 14 mph 1013.4mb 71f
5:00 11 13 mph 1013mb 72f
4:00 16 17 mph 1013.2mb 71f
3:00 9 10 mph 1013.6mb 70f
2:00 5 7 mph 1013.9mb 67f
1:00 6 8 mph 1014.3mb 66f
12:00 8 9 mph 1014.4mb 66f
11:00 9 10 mph 1014.4mb 66f
10:00 8 9 mph 1014.1mb 64f
9:00 13 14 mph 1014.1mb 64f
8:00 14 16 mph 1013.9mb 63f
7:00 17 18 mph 1013.1mb 60f
6:00 17 17 mph 1012.6mb 60f
5:00 18 18 mph 1012.5mb 62f
4:00 18 18 mph 1012.2mb 64f
3:00 16 17 mph 1011.9mb 63f
2:00 20 21 mph 1012mb 64f
1:00 24 24 mph 1012.2mb 64f
12:00 11 11 mph 1011.8mb 68f
Dom 06/25 11:00 15 15 mph 1012.6mb 65f
10:00 18 21 mph 1012.2mb 72f
9:00 22 23 mph 1011.2mb 68f
8:00 21 23 mph 1011mb 69f
7:00 22 23 mph 1010.7mb 70f
6:00 18 18 mph 1010.5mb 73f
5:00 21 23 mph 1010.7mb 71f
4:00 14 15 mph 1011mb 73f
3:00 16 16 mph 1011.4mb 73f
2:00 13 13 mph 1011.9mb 69f
1:00 10 11 mph 1012.3mb 72f
12:00 7 9 mph 1012.6mb 71f
11:00 6 6 mph 1013mb 70f
10:00 8 8 mph 1013.1mb 70f
9:00 11 11 mph 1013mb 68f
8:00 11 11 mph 1012.9mb 66f
7:00 13 13 mph 1012.2mb 65f
6:00 11 11 mph 1011.7mb 66f
5:00 15 15 mph 1010.8mb 68f
4:00 15 16 mph 1010.5mb 70f
3:00 17 17 mph 1010.2mb 71f
2:00 18 18 mph 1010.1mb 71f
1:00 18 20 mph 1009.6mb 70f
12:00 21 22 mph 1009.1mb 74f
Sáb 06/24 11:00 17 17 mph 1008.6mb 75f
10:00 20 21 mph 1007.9mb 76f
9:00 14 15 mph 1006.5mb 79f
8:00 15 16 mph 1005.3mb 82f
7:00 15 15 mph 1004.7mb 82f
6:00 14 15 mph 1003.7mb 82f
5:00 16 17 mph 1002.8mb 77f
4:00 18 20 mph 1002mb 80f
3:00 11 13 mph 1001.1mb 76f
2:00 8 9 mph 1000.9mb 74f
1:00 22 22 mph 1000.2mb 72f
12:00 22 22 mph 1000.1mb 71f
11:00 17 20 mph 1000.1mb 69f
10:00 20 21 mph 999.8mb 75f
9:00 22 23 mph 999.1mb 75f
8:00 21 21 mph 999mb 74f